createdAt,value
2023-02-12T00:00:39.465Z,67.45
2023-02-12T00:03:05.340Z,66.28
2023-02-12T00:05:31.756Z,66.65
2023-02-12T00:07:58.019Z,66.22
2023-02-12T00:10:23.955Z,66.80
2023-02-12T00:12:50.174Z,64.60
2023-02-12T00:15:16.054Z,67.90
2023-02-12T00:17:41.839Z,66.60
2023-02-12T00:20:08.066Z,67.30
2023-02-12T00:22:33.907Z,68.25
2023-02-12T00:24:59.707Z,69.00
2023-02-12T00:27:25.652Z,66.55
2023-02-12T00:29:51.522Z,69.13
2023-02-12T00:32:18.888Z,66.63
2023-02-12T00:34:46.094Z,67.07
2023-02-12T00:37:12.862Z,67.97
2023-02-12T00:39:38.800Z,69.80
2023-02-12T00:42:04.758Z,66.88
2023-02-12T00:44:30.634Z,62.10
2023-02-12T00:46:57.170Z,63.35
2023-02-12T00:49:23.598Z,67.13
2023-02-12T00:51:49.486Z,69.55
2023-02-12T00:54:15.398Z,65.80
2023-02-12T00:56:41.533Z,65.00
2023-02-12T00:59:07.722Z,66.70
2023-02-12T01:01:33.720Z,65.57
2023-02-12T01:03:59.650Z,64.22
2023-02-12T01:06:25.608Z,65.97
2023-02-12T01:08:52.249Z,64.80
2023-02-12T01:11:18.889Z,67.18
2023-02-12T01:13:44.799Z,64.18
2023-02-12T01:16:16.859Z,66.25
2023-02-12T01:18:43.183Z,60.50
2023-02-12T01:21:14.195Z,67.20
2023-02-12T01:23:41.176Z,68.40
2023-02-12T01:26:09.905Z,65.35
2023-02-12T01:28:37.355Z,67.20
2023-02-12T01:31:15.032Z,65.35
2023-02-12T01:33:42.804Z,66.97
2023-02-12T01:36:10.413Z,66.13
2023-02-12T01:38:36.405Z,65.95
2023-02-12T01:41:11.731Z,65.03
2023-02-12T01:43:38.259Z,62.85
2023-02-12T01:46:05.096Z,66.32
2023-02-12T01:48:38.348Z,63.92
2023-02-12T01:51:06.749Z,64.28
2023-02-12T01:53:36.386Z,61.88
2023-02-12T01:56:03.300Z,62.95
2023-02-12T01:58:37.100Z,66.45
2023-02-12T02:01:05.666Z,65.45
2023-02-12T02:03:33.462Z,64.60
2023-02-12T02:06:05.707Z,64.28
2023-02-12T02:08:33.376Z,65.43
2023-02-12T02:10:59.140Z,63.90
2023-02-12T02:13:44.116Z,64.35
2023-02-12T02:16:27.091Z,64.65
2023-02-12T02:18:59.760Z,67.97
2023-02-12T02:21:46.370Z,62.55
2023-02-12T02:24:36.353Z,65.75
2023-02-12T02:27:19.076Z,60.53
2023-02-12T02:30:33.200Z,70.53
2023-02-12T02:33:29.646Z,65.15
2023-02-12T02:38:41.986Z,61.08
2023-02-12T02:41:17.364Z,64.32
2023-02-12T02:46:30.229Z,63.35
2023-02-12T02:49:00.361Z,61.25
2023-02-12T02:51:33.859Z,62.35
2023-02-12T02:54:25.166Z,62.83
2023-02-12T02:56:54.530Z,59.35
2023-02-12T02:59:26.834Z,57.22
2023-02-12T03:01:58.396Z,59.53
2023-02-12T03:04:38.309Z,61.08
2023-02-12T03:07:10.851Z,56.33
2023-02-12T03:09:41.164Z,55.45
2023-02-12T03:12:17.725Z,55.08
2023-02-12T03:15:06.976Z,54.05
2023-02-12T03:17:44.551Z,50.25
2023-02-12T03:20:14.374Z,51.38
2023-02-12T03:22:46.227Z,53.35
2023-02-12T03:25:15.438Z,50.28
2023-02-12T03:27:47.358Z,52.55
2023-02-12T03:30:13.603Z,49.80
2023-02-12T03:32:51.567Z,50.03
2023-02-12T03:35:24.530Z,50.88
2023-02-12T03:38:00.054Z,51.60
2023-02-12T03:43:03.472Z,49.53
2023-02-12T03:45:55.191Z,50.67
2023-02-12T03:48:29.568Z,46.15
2023-02-12T03:51:13.910Z,46.38
2023-02-12T03:53:41.991Z,50.03
2023-02-12T03:56:15.565Z,49.30
2023-02-12T03:58:43.476Z,47.65
2023-02-12T04:01:10.719Z,47.47
2023-02-12T04:03:37.165Z,47.95
2023-02-12T04:06:03.196Z,46.60
2023-02-12T04:08:31.146Z,45.25
2023-02-12T04:11:32.102Z,47.58
2023-02-12T04:14:19.485Z,44.15
2023-02-12T04:16:54.083Z,43.17
2023-02-12T04:19:31.932Z,45.10
2023-02-12T04:22:30.720Z,44.65
2023-02-12T04:25:09.172Z,42.95
2023-02-12T04:27:41.917Z,44.03
2023-02-12T04:30:13.697Z,43.25
2023-02-12T04:33:02.982Z,43.83
2023-02-12T04:35:40.714Z,43.75
2023-02-12T04:38:17.676Z,44.67
2023-02-12T04:40:44.014Z,42.72
2023-02-12T04:43:10.305Z,41.42
2023-02-12T04:45:37.131Z,43.80
2023-02-12T04:48:04.824Z,39.63
2023-02-12T04:50:42.347Z,40.05
2023-02-12T04:53:09.248Z,39.95
2023-02-12T04:55:35.107Z,41.30
2023-02-12T04:58:01.189Z,39.70
2023-02-12T05:00:26.993Z,41.63
2023-02-12T05:02:52.791Z,41.53
2023-02-12T05:05:18.690Z,40.53
2023-02-12T05:07:44.473Z,40.22
2023-02-12T05:10:10.486Z,40.10
2023-02-12T05:12:36.464Z,40.75
2023-02-12T05:15:02.381Z,38.92
2023-02-12T05:17:28.118Z,37.20
2023-02-12T05:19:53.956Z,37.75
2023-02-12T05:22:19.820Z,38.50
2023-02-12T05:24:46.221Z,38.03
2023-02-12T05:27:12.418Z,36.35
2023-02-12T05:29:38.225Z,34.13
2023-02-12T05:32:04.580Z,32.85
2023-02-12T05:34:30.474Z,34.75
2023-02-12T05:36:56.252Z,33.30
2023-02-12T05:39:22.049Z,31.50
2023-02-12T05:41:49.013Z,28.88
2023-02-12T05:44:15.091Z,30.70
2023-02-12T05:46:41.650Z,30.17
2023-02-12T05:49:08.341Z,31.75
2023-02-12T05:51:34.309Z,32.30
2023-02-12T05:54:03.025Z,33.22
2023-02-12T05:56:44.427Z,34.03
2023-02-12T05:59:17.239Z,33.85
2023-02-12T06:01:45.310Z,34.88
2023-02-12T06:04:22.852Z,33.45
2023-02-12T06:06:49.955Z,32.33
2023-02-12T06:09:15.867Z,32.20
2023-02-12T06:11:41.925Z,33.95
2023-02-12T06:14:11.556Z,32.85
2023-02-12T06:16:37.590Z,34.28
2023-02-12T06:19:04.884Z,36.28
2023-02-12T06:21:31.351Z,34.50
2023-02-12T06:23:57.337Z,35.47
2023-02-12T06:26:23.953Z,35.17
2023-02-12T06:28:50.685Z,36.05
2023-02-12T06:31:20.785Z,34.88
2023-02-12T06:33:47.252Z,35.13
2023-02-12T06:36:13.021Z,35.30
2023-02-12T06:38:39.054Z,36.25
2023-02-12T06:41:04.837Z,35.30
2023-02-12T06:43:30.768Z,37.70
2023-02-12T06:46:00.485Z,35.30
2023-02-12T06:48:26.338Z,34.72
2023-02-12T06:50:52.156Z,33.58
2023-02-12T06:53:18.065Z,35.63
2023-02-12T06:55:43.821Z,34.28
2023-02-12T06:58:09.784Z,34.25
2023-02-12T07:00:35.569Z,33.30
2023-02-12T07:03:01.402Z,32.90
2023-02-12T07:05:27.328Z,31.70
2023-02-12T07:07:53.503Z,32.67
2023-02-12T07:10:19.486Z,33.20
2023-02-12T07:12:45.814Z,30.95
2023-02-12T07:15:12.168Z,33.47
2023-02-12T07:17:38.035Z,32.70
2023-02-12T07:20:04.596Z,33.50
2023-02-12T07:22:30.477Z,32.05
2023-02-12T07:24:56.404Z,32.88
2023-02-12T07:27:22.247Z,30.75
2023-02-12T07:29:47.981Z,31.63
2023-02-12T07:32:13.770Z,31.83
2023-02-12T07:34:39.593Z,33.35
2023-02-12T07:37:06.777Z,34.35
2023-02-12T07:39:32.598Z,34.58
2023-02-12T07:41:58.419Z,35.63
2023-02-12T07:44:24.321Z,34.55
2023-02-12T07:46:50.254Z,36.45
2023-02-12T07:49:18.950Z,34.92
2023-02-12T07:51:45.668Z,37.53
2023-02-12T07:54:12.403Z,34.60
2023-02-12T07:56:40.392Z,34.00
2023-02-12T07:59:10.022Z,35.25
2023-02-12T08:01:41.328Z,35.60
2023-02-12T08:04:10.313Z,34.35
2023-02-12T08:06:39.319Z,34.78
2023-02-12T08:09:09.170Z,35.38
2023-02-12T08:11:36.332Z,34.88
2023-02-12T08:14:03.310Z,35.58
2023-02-12T08:16:29.742Z,37.70
2023-02-12T08:19:00.616Z,34.78
2023-02-12T08:21:30.449Z,35.95
2023-02-12T08:23:57.892Z,35.60
2023-02-12T08:26:29.617Z,35.65
2023-02-12T08:29:01.934Z,38.85
2023-02-12T08:31:31.077Z,38.13
2023-02-12T08:33:57.585Z,35.92
2023-02-12T08:36:36.163Z,34.88
2023-02-12T08:39:02.165Z,32.33
2023-02-12T08:41:28.962Z,32.03
2023-02-12T08:43:57.643Z,33.05
2023-02-12T08:46:28.649Z,33.30
2023-02-12T08:48:56.874Z,32.50
2023-02-12T08:51:26.039Z,33.30
2023-02-12T08:53:55.117Z,30.90
2023-02-12T08:56:22.139Z,30.38
2023-02-12T08:58:48.106Z,30.30
2023-02-12T09:01:17.269Z,31.83
2023-02-12T09:03:44.898Z,27.83
2023-02-12T09:06:11.979Z,29.10
2023-02-12T09:08:38.624Z,30.70
2023-02-12T09:11:11.933Z,30.15
2023-02-12T09:13:39.384Z,30.55
2023-02-12T09:16:06.173Z,29.05
2023-02-12T09:18:32.665Z,31.25
2023-02-12T09:21:10.592Z,29.85
2023-02-12T09:23:37.242Z,29.10
2023-02-12T09:26:05.076Z,28.42
2023-02-12T09:28:30.982Z,29.67
2023-02-12T09:30:57.039Z,30.75
2023-02-12T09:33:22.988Z,29.63
2023-02-12T09:35:49.306Z,30.52
2023-02-12T09:38:15.190Z,32.67
2023-02-12T09:41:10.707Z,31.48
2023-02-12T09:43:47.999Z,30.33
2023-02-12T09:46:24.973Z,30.65
2023-02-12T09:49:08.651Z,29.08
2023-02-12T09:51:36.075Z,27.30
2023-02-12T09:54:19.046Z,26.13
2023-02-12T09:56:51.850Z,27.17
2023-02-12T09:59:31.038Z,26.70
2023-02-12T10:01:58.106Z,25.05
2023-02-12T10:04:26.633Z,28.23
2023-02-12T10:07:18.137Z,23.52
2023-02-12T10:10:02.163Z,23.58
2023-02-12T10:12:40.462Z,23.08
2023-02-12T10:15:16.257Z,22.70
2023-02-12T10:17:50.358Z,21.67
2023-02-12T10:20:28.027Z,22.88
2023-02-12T10:23:03.701Z,22.23
2023-02-12T10:25:32.290Z,22.95
2023-02-12T10:28:06.830Z,21.10
2023-02-12T10:33:28.963Z,21.65
2023-02-12T10:36:36.555Z,19.67
2023-02-12T10:39:12.664Z,20.27
2023-02-12T10:41:50.160Z,21.67
2023-02-12T10:44:16.007Z,21.02
2023-02-12T10:46:41.938Z,21.10
2023-02-12T10:49:10.820Z,21.90
2023-02-12T10:52:01.667Z,21.58
2023-02-12T10:54:40.192Z,18.23
2023-02-12T10:57:28.858Z,16.52
2023-02-12T10:59:56.751Z,16.67
2023-02-12T11:02:31.821Z,15.40
2023-02-12T11:05:00.424Z,15.07
2023-02-12T11:07:27.787Z,14.68
2023-02-12T11:09:55.918Z,14.85
2023-02-12T11:12:40.256Z,15.85
2023-02-12T11:15:14.787Z,14.25
2023-02-12T11:17:44.128Z,13.13
2023-02-12T11:20:16.081Z,13.88
2023-02-12T11:22:51.941Z,12.98
2023-02-12T11:25:18.006Z,12.63
2023-02-12T11:27:44.092Z,12.15
2023-02-12T11:30:10.066Z,11.60
2023-02-12T11:32:36.683Z,9.57
2023-02-12T11:35:10.351Z,10.45
2023-02-12T11:37:41.378Z,8.38
2023-02-12T11:40:16.131Z,8.43
2023-02-12T11:42:48.692Z,8.10
2023-02-12T11:45:20.927Z,7.07
2023-02-12T11:47:47.762Z,7.10
2023-02-12T11:50:32.624Z,7.25
2023-02-12T11:53:06.219Z,7.97
2023-02-12T11:55:39.279Z,8.35
2023-02-12T11:58:16.922Z,9.10
2023-02-12T12:00:53.947Z,9.80
2023-02-12T12:03:36.719Z,9.90
2023-02-12T12:06:29.047Z,9.02
2023-02-12T12:09:21.332Z,10.45
2023-02-12T12:11:55.858Z,9.43
2023-02-12T12:14:56.542Z,8.77
2023-02-12T12:17:47.985Z,8.95
2023-02-12T12:20:20.666Z,9.50
2023-02-12T12:22:52.486Z,10.43
2023-02-12T12:25:28.669Z,9.68
2023-02-12T12:28:04.906Z,9.60
2023-02-12T12:30:55.365Z,10.10
2023-02-12T12:33:21.222Z,9.23
2023-02-12T12:36:04.093Z,10.35
2023-02-12T12:38:29.941Z,9.75
2023-02-12T12:41:07.225Z,10.93
2023-02-12T12:43:45.584Z,10.07
2023-02-12T12:46:37.977Z,9.85
2023-02-12T12:49:11.729Z,9.98
2023-02-12T12:51:53.603Z,9.95
2023-02-12T12:54:22.301Z,10.30
2023-02-12T12:56:57.349Z,10.38
2023-02-12T12:59:45.134Z,10.25
2023-02-12T13:02:38.571Z,10.63
2023-02-12T13:05:31.912Z,9.93
2023-02-12T13:08:03.545Z,10.02
2023-02-12T13:10:35.095Z,10.90
2023-02-12T13:13:03.984Z,12.50
2023-02-12T13:15:40.432Z,12.18
2023-02-12T13:18:18.276Z,12.45
2023-02-12T13:21:14.875Z,13.20
2023-02-12T13:24:26.151Z,13.68
2023-02-12T13:26:56.795Z,11.02
2023-02-12T13:29:28.738Z,12.77
2023-02-12T13:32:02.000Z,13.38
2023-02-12T13:34:31.894Z,12.82
2023-02-12T13:37:02.204Z,14.73
2023-02-12T13:39:36.797Z,13.40
2023-02-12T13:42:05.598Z,12.68
2023-02-12T13:44:40.781Z,12.95
2023-02-12T13:47:48.788Z,14.02
2023-02-12T13:50:56.244Z,13.88
2023-02-12T13:53:46.400Z,13.90
2023-02-12T13:56:41.013Z,15.10
2023-02-12T13:59:31.754Z,13.18
2023-02-12T14:02:02.734Z,14.52
2023-02-12T14:04:36.986Z,14.65
2023-02-12T14:07:12.127Z,13.73
2023-02-12T14:09:44.725Z,13.30
2023-02-12T14:12:43.000Z,13.43
2023-02-12T14:15:22.156Z,14.60
2023-02-12T14:18:06.879Z,15.20
2023-02-12T14:20:39.567Z,17.20
2023-02-12T14:23:27.274Z,17.00
2023-02-12T14:25:58.520Z,17.92
2023-02-12T14:28:25.275Z,15.23
2023-02-12T14:31:19.287Z,17.08
2023-02-12T14:33:48.041Z,16.38
2023-02-12T14:36:30.560Z,16.33
2023-02-12T14:39:00.795Z,18.83
2023-02-12T14:41:40.965Z,15.38
2023-02-12T14:44:29.850Z,15.35
2023-02-12T14:46:58.479Z,15.63
2023-02-12T14:49:32.416Z,15.88
2023-02-12T14:52:13.123Z,15.65
2023-02-12T14:55:04.550Z,16.05
2023-02-12T14:57:39.488Z,16.83
2023-02-12T15:00:17.736Z,16.80
2023-02-12T15:02:50.413Z,18.17
2023-02-12T15:05:26.030Z,17.10
2023-02-12T15:07:57.764Z,17.58
2023-02-12T15:10:36.644Z,17.73
2023-02-12T15:13:21.272Z,18.42
2023-02-12T15:16:01.436Z,17.77
2023-02-12T15:18:42.214Z,16.60
2023-02-12T15:21:27.259Z,18.13
2023-02-12T15:24:10.939Z,17.10
2023-02-12T15:26:41.958Z,17.98
2023-02-12T15:29:27.017Z,19.33
2023-02-12T15:31:59.423Z,16.85
2023-02-12T15:34:31.858Z,18.13
2023-02-12T15:37:00.298Z,17.35
2023-02-12T15:39:28.304Z,18.75
2023-02-12T15:41:54.388Z,19.67
2023-02-12T15:44:24.282Z,19.17
2023-02-12T15:46:56.255Z,18.52
2023-02-12T15:49:36.350Z,19.77
2023-02-12T15:52:10.714Z,18.77
2023-02-12T15:54:38.138Z,18.42
2023-02-12T15:57:11.616Z,16.73
2023-02-12T15:59:39.107Z,17.17
2023-02-12T16:02:18.127Z,17.67
2023-02-12T16:04:44.657Z,19.33
2023-02-12T16:07:12.851Z,19.48
2023-02-12T16:09:40.869Z,16.48
2023-02-12T16:12:13.927Z,16.45
2023-02-12T16:15:02.983Z,16.23
2023-02-12T16:17:32.516Z,15.23
2023-02-12T16:20:01.318Z,16.33
2023-02-12T16:22:37.356Z,17.10
2023-02-12T16:25:08.803Z,15.93
2023-02-12T16:27:34.819Z,17.50
2023-02-12T16:30:05.932Z,18.08
2023-02-12T16:32:36.186Z,17.10
2023-02-12T16:35:05.759Z,17.90
2023-02-12T16:37:34.640Z,18.00
2023-02-12T16:40:12.774Z,19.17
2023-02-12T16:42:55.519Z,18.17
2023-02-12T16:45:24.342Z,19.02
2023-02-12T16:47:51.011Z,17.92
2023-02-12T16:50:17.655Z,17.08
2023-02-12T16:52:43.725Z,17.08
2023-02-12T16:55:14.847Z,17.60
2023-02-12T16:57:40.953Z,18.05
2023-02-12T17:00:09.373Z,17.38
2023-02-12T17:02:36.665Z,18.17
2023-02-12T17:05:06.503Z,18.35
2023-02-12T17:07:33.454Z,16.73
2023-02-12T17:10:00.260Z,17.25
2023-02-12T17:12:27.214Z,17.42
2023-02-12T17:14:54.149Z,17.13
2023-02-12T17:17:23.237Z,17.00
2023-02-12T17:19:49.605Z,16.70
2023-02-12T17:22:25.253Z,14.88
2023-02-12T17:24:52.791Z,14.88
2023-02-12T17:27:22.537Z,13.63
2023-02-12T17:29:48.589Z,13.70
2023-02-12T17:32:15.535Z,13.02
2023-02-12T17:34:48.606Z,12.57
2023-02-12T17:37:16.959Z,13.30
2023-02-12T17:39:42.864Z,13.00
2023-02-12T17:42:09.005Z,11.35
2023-02-12T17:44:34.879Z,11.65
2023-02-12T17:47:00.713Z,10.85
2023-02-12T17:49:26.708Z,11.23
2023-02-12T17:51:52.590Z,11.48
2023-02-12T17:54:18.597Z,13.25
2023-02-12T17:56:44.600Z,11.07
2023-02-12T17:59:10.467Z,11.35
2023-02-12T18:01:36.442Z,12.73
2023-02-12T18:04:02.428Z,12.73
2023-02-12T18:06:29.515Z,11.85
2023-02-12T18:08:57.009Z,12.43
2023-02-12T18:11:23.366Z,11.40
2023-02-12T18:13:56.074Z,15.00
2023-02-12T18:16:24.049Z,16.15
2023-02-12T18:18:50.543Z,13.48
2023-02-12T18:21:17.088Z,13.10
2023-02-12T18:23:43.606Z,13.73
2023-02-12T18:26:16.357Z,13.32
2023-02-12T18:28:43.108Z,14.55
2023-02-12T18:31:09.818Z,25.38
2023-02-12T18:33:36.792Z,20.65
2023-02-12T18:36:14.801Z,25.20
2023-02-12T18:38:42.219Z,21.38
2023-02-12T18:41:10.539Z,19.85
2023-02-12T18:43:36.785Z,17.38
2023-02-12T18:46:08.085Z,15.52
2023-02-12T18:48:34.699Z,15.98
2023-02-12T18:51:01.853Z,14.98
2023-02-12T18:53:28.016Z,15.38
2023-02-12T18:55:53.917Z,21.52
2023-02-12T18:58:19.933Z,19.42
2023-02-12T19:00:45.851Z,16.30
2023-02-12T19:03:12.029Z,17.17
2023-02-12T19:05:37.958Z,18.58
2023-02-12T19:08:04.277Z,17.17
2023-02-12T19:10:30.151Z,16.92
2023-02-12T19:12:56.354Z,18.80
2023-02-12T19:15:23.140Z,18.70
2023-02-12T19:17:49.255Z,19.65
2023-02-12T19:20:16.247Z,17.05
2023-02-12T19:22:42.666Z,17.77
2023-02-12T19:25:09.385Z,16.20
2023-02-12T19:27:35.837Z,16.55
2023-02-12T19:30:02.238Z,17.27
2023-02-12T19:32:28.170Z,17.52
2023-02-12T19:34:54.181Z,17.00
2023-02-12T19:37:20.368Z,24.70
2023-02-12T19:39:46.313Z,30.65
2023-02-12T19:42:14.040Z,32.17
2023-02-12T19:44:40.430Z,25.77
2023-02-12T19:47:08.256Z,22.20
2023-02-12T19:49:34.542Z,19.40
2023-02-12T19:52:00.667Z,19.17
2023-02-12T19:54:26.798Z,14.52
2023-02-12T19:56:54.546Z,14.80
2023-02-12T19:59:22.151Z,13.57
2023-02-12T20:01:48.497Z,12.23
2023-02-12T20:04:17.293Z,12.38
2023-02-12T20:06:45.242Z,12.57
2023-02-12T20:09:12.707Z,15.27
2023-02-12T20:11:39.136Z,15.02
2023-02-12T20:14:08.279Z,14.15
2023-02-12T20:16:38.111Z,12.80
2023-02-12T20:19:11.963Z,12.80
2023-02-12T20:21:38.687Z,12.65
2023-02-12T20:24:05.411Z,13.00
2023-02-12T20:26:32.440Z,13.60
2023-02-12T20:28:59.870Z,13.52
2023-02-12T20:31:29.227Z,14.77
2023-02-12T20:33:57.883Z,15.00
2023-02-12T20:36:25.053Z,17.08
2023-02-12T20:38:55.265Z,16.15
2023-02-12T20:41:22.355Z,16.65
2023-02-12T20:43:59.274Z,16.10
2023-02-12T20:46:25.761Z,16.05
2023-02-12T20:48:53.629Z,17.58
2023-02-12T20:51:22.151Z,17.45
2023-02-12T20:53:49.417Z,15.90
2023-02-12T20:56:18.400Z,16.67
2023-02-12T20:58:45.332Z,17.35
2023-02-12T21:01:17.618Z,16.83
2023-02-12T21:03:44.473Z,15.93
2023-02-12T21:06:11.014Z,15.80
2023-02-12T21:08:38.782Z,16.13
2023-02-12T21:11:07.116Z,17.15
2023-02-12T21:13:33.478Z,15.90
2023-02-12T21:16:03.929Z,16.52
2023-02-12T21:18:30.007Z,15.80
2023-02-12T21:21:03.234Z,15.80
2023-02-12T21:23:32.453Z,15.88
2023-02-12T21:26:09.164Z,15.93
2023-02-12T21:28:35.802Z,15.18
2023-02-12T21:31:16.859Z,14.32
2023-02-12T21:33:44.805Z,14.15
2023-02-12T21:36:23.643Z,12.98
2023-02-12T21:38:50.968Z,11.57
2023-02-12T21:41:20.406Z,12.23
2023-02-12T21:43:49.458Z,12.98
2023-02-12T21:46:16.373Z,13.07
2023-02-12T21:48:43.319Z,11.88
2023-02-12T21:51:19.741Z,11.85
2023-02-12T21:53:47.162Z,12.88
2023-02-12T21:56:13.564Z,11.63
2023-02-12T21:58:40.129Z,11.50
2023-02-12T22:01:17.881Z,12.40
2023-02-12T22:03:44.244Z,11.57
2023-02-12T22:06:11.619Z,10.82
2023-02-12T22:08:37.551Z,11.52
2023-02-12T22:11:09.263Z,11.75
2023-02-12T22:13:35.970Z,11.40
2023-02-12T22:16:15.565Z,11.48
2023-02-12T22:18:42.391Z,11.35
2023-02-12T22:21:12.986Z,11.82
2023-02-12T22:23:39.221Z,11.15
2023-02-12T22:26:14.243Z,11.43
2023-02-12T22:28:44.409Z,11.65
2023-02-12T22:31:12.049Z,11.98
2023-02-12T22:33:38.126Z,11.20
2023-02-12T22:36:08.788Z,11.70
2023-02-12T22:38:36.145Z,10.48
2023-02-12T22:41:02.638Z,11.32
2023-02-12T22:43:29.579Z,10.48
2023-02-12T22:45:55.767Z,11.13
2023-02-12T22:48:22.413Z,10.05
2023-02-12T22:50:48.219Z,9.55
2023-02-12T22:53:13.983Z,8.90
2023-02-12T22:55:39.914Z,9.75
2023-02-12T22:58:05.823Z,9.95
2023-02-12T23:00:31.762Z,9.43
2023-02-12T23:02:57.641Z,8.18
2023-02-12T23:05:23.574Z,8.65
2023-02-12T23:07:49.375Z,8.73
2023-02-12T23:10:15.216Z,7.32
2023-02-12T23:12:41.171Z,8.90
2023-02-12T23:15:07.179Z,7.32
2023-02-12T23:17:33.018Z,8.15
2023-02-12T23:19:58.912Z,8.13
2023-02-12T23:22:24.845Z,8.75
2023-02-12T23:24:51.084Z,7.80
2023-02-12T23:27:16.985Z,8.00
2023-02-12T23:29:42.819Z,8.20
2023-02-12T23:32:08.712Z,8.05
2023-02-12T23:34:34.593Z,7.45
2023-02-12T23:37:00.451Z,8.45
2023-02-12T23:39:26.308Z,8.23
2023-02-12T23:41:52.161Z,7.97
2023-02-12T23:44:17.990Z,7.97
2023-02-12T23:46:43.924Z,8.30
2023-02-12T23:49:09.814Z,8.45
2023-02-12T23:51:35.625Z,9.07
2023-02-12T23:54:01.543Z,8.48
2023-02-12T23:56:27.640Z,8.35
2023-02-12T23:58:56.831Z,8.57
